Time;durP1;ratioP1;P1;durP2;ratioP2;P2;SDS_P1;SDS_P2;PMS_P1;PMS_P2;Temp;Humidity;BMP_temperature;BMP_pressure;BME280_temperature;BME280_humidity;BME280_pressure;Samples;Min_cycle;Max_cycle;Signal;HPM_P1;HPM_P2
2022/03/04 00:02:02;;;;;;;20.52;12.95;;;1.30;99.90;;;;;;4921132;28;90250;-34
2022/03/04 00:04:28;;;;;;;21.33;15.63;;;1.30;99.90;;;;;;4921057;28;89980;-32
2022/03/04 00:06:54;;;;;;;19.65;15.48;;;1.30;99.90;;;;;;4967682;22;89663;-35
2022/03/04 00:09:20;;;;;;;21.85;15.18;;;1.40;99.90;;;;;;4921746;28;90399;-35
2022/03/04 00:11:47;;;;;;;19.05;14.63;;;1.30;99.90;;;;;;4921290;28;89701;-33
2022/03/04 00:14:13;;;;;;;20.05;15.25;;;1.20;99.90;;;;;;4921305;28;90213;-34
2022/03/04 00:16:39;;;;;;;19.30;15.05;;;1.10;99.90;;;;;;4920558;28;90852;-33
2022/03/04 00:19:08;;;;;;;19.15;14.98;;;1.10;99.90;;;;;;4920769;28;89723;-31
2022/03/04 00:21:43;;;;;;;23.35;14.73;;;1.00;99.90;;;;;;4920936;28;90186;-34
2022/03/04 00:24:09;;;;;;;15.85;13.57;;;0.90;99.90;;;;;;4920713;28;90112;-33
2022/03/04 00:26:36;;;;;;;23.92;14.57;;;0.90;99.90;;;;;;4919726;28;90242;-33
2022/03/04 00:29:02;;;;;;;20.77;14.60;;;0.90;99.90;;;;;;4921385;28;91282;-30
2022/03/04 00:31:27;;;;;;;17.52;14.15;;;0.80;99.90;;;;;;4920830;28;88931;-34
2022/03/04 00:33:53;;;;;;;19.20;15.13;;;0.90;99.90;;;;;;4920679;28;90342;-37
2022/03/04 00:36:22;;;;;;;20.02;15.35;;;0.90;99.90;;;;;;4920169;28;90362;-31
2022/03/04 00:38:49;;;;;;;22.80;16.63;;;0.90;99.90;;;;;;4920940;28;90786;-33
2022/03/04 00:41:20;;;;;;;19.50;14.67;;;0.90;99.90;;;;;;4920571;28;90213;-31
2022/03/04 00:43:46;;;;;;;26.73;16.95;;;0.80;99.90;;;;;;4920229;28;89117;-34
2022/03/04 00:46:13;;;;;;;24.02;16.63;;;0.80;99.90;;;;;;4920715;28;89530;-37
2022/03/04 00:48:39;;;;;;;20.67;15.65;;;0.90;99.90;;;;;;4921022;28;90036;-35
2022/03/04 00:51:05;;;;;;;20.38;15.88;;;0.80;99.90;;;;;;4920080;28;89371;-35
2022/03/04 00:53:30;;;;;;;20.00;15.80;;;0.70;99.90;;;;;;4920563;28;90754;-32
2022/03/04 00:55:57;;;;;;;24.23;17.05;;;0.90;99.90;;;;;;4920845;28;89617;-32
2022/03/04 00:58:23;;;;;;;19.08;13.43;;;0.90;99.90;;;;;;4919836;28;89732;-33
2022/03/04 01:00:49;;;;;;;25.50;17.88;;;0.80;99.90;;;;;;4920512;28;89399;-33
2022/03/04 01:03:15;;;;;;;18.70;14.50;;;0.80;99.90;;;;;;4919439;28;91230;-32
2022/03/04 01:05:40;;;;;;;23.10;15.45;;;0.90;99.90;;;;;;4920376;28;89446;-33
2022/03/04 01:08:07;;;;;;;19.88;15.25;;;1.00;99.90;;;;;;4920153;28;89563;-30
2022/03/04 01:10:32;;;;;;;21.50;16.15;;;0.90;99.90;;;;;;4920275;28;88672;-29
2022/03/04 01:12:58;;;;;;;20.02;14.77;;;0.90;99.90;;;;;;4920125;28;89898;-30
2022/03/04 01:15:23;;;;;;;20.35;15.52;;;0.80;99.90;;;;;;4919251;28;91258;-34
2022/03/04 01:17:49;;;;;;;22.23;16.88;;;0.70;99.90;;;;;;4920417;28;90477;-29
2022/03/04 01:20:15;;;;;;;22.58;15.07;;;0.60;99.90;;;;;;4919977;28;88369;-29
2022/03/04 01:22:41;;;;;;;26.13;17.48;;;0.70;99.90;;;;;;4919650;28;89729;-32
2022/03/04 01:25:07;;;;;;;19.80;13.27;;;0.70;99.90;;;;;;4920785;28;90452;-31
2022/03/04 01:27:33;;;;;;;26.45;18.17;;;0.70;99.90;;;;;;4919337;28;89524;-33
2022/03/04 01:29:58;;;;;;;22.83;16.52;;;0.70;99.90;;;;;;4920248;28;87694;-29
2022/03/04 01:32:24;;;;;;;28.00;18.67;;;0.60;99.90;;;;;;4919921;28;92356;-30
2022/03/04 01:34:49;;;;;;;20.88;15.00;;;0.50;99.90;;;;;;4919445;28;89558;-31
2022/03/04 01:37:15;;;;;;;22.92;17.33;;;0.60;99.90;;;;;;4919288;28;89982;-28
2022/03/04 01:39:41;;;;;;;23.98;17.20;;;0.70;99.90;;;;;;4919822;28;88886;-30
2022/03/04 01:42:07;;;;;;;25.67;17.80;;;0.60;99.90;;;;;;4920301;28;91137;-31
2022/03/04 01:44:33;;;;;;;22.58;16.65;;;0.60;99.90;;;;;;4919352;28;88318;-31
2022/03/04 01:46:58;;;;;;;24.40;17.40;;;0.50;99.90;;;;;;4919826;28;89692;-35
2022/03/04 01:49:24;;;;;;;30.67;19.73;;;0.40;99.90;;;;;;4919815;28;88849;-33
2022/03/04 01:51:50;;;;;;;23.20;16.05;;;0.40;99.90;;;;;;4918131;28;88864;-31
2022/03/04 01:54:15;;;;;;;26.67;19.63;;;0.40;99.90;;;;;;4920274;28;90036;-29
2022/03/04 01:56:41;;;;;;;24.98;17.52;;;0.50;99.90;;;;;;4919177;28;89400;-31
2022/03/04 01:59:07;;;;;;;24.42;19.02;;;0.50;99.90;;;;;;4918801;28;89870;-32
2022/03/04 02:01:34;;;;;;;27.33;19.58;;;0.50;99.90;;;;;;4918983;28;90096;-32
2022/03/04 02:03:59;;;;;;;24.20;15.95;;;0.40;99.90;;;;;;4918933;28;91365;-31
2022/03/04 02:06:25;;;;;;;23.27;18.30;;;0.40;99.90;;;;;;4919115;28;90563;-31
2022/03/04 02:08:51;;;;;;;27.40;17.38;;;0.30;99.90;;;;;;4919541;28;88280;-32
2022/03/04 02:11:16;;;;;;;22.88;17.38;;;0.30;99.90;;;;;;4919472;28;90241;-29
2022/03/04 02:13:45;;;;;;;31.55;17.98;;;0.30;99.90;;;;;;4919499;28;89634;-30
2022/03/04 02:16:26;;;;;;;26.17;17.52;;;0.20;99.90;;;;;;4919057;28;90186;-38
2022/03/04 02:18:53;;;;;;;29.92;19.77;;;0.10;99.90;;;;;;4919748;28;89730;-29
2022/03/04 02:21:22;;;;;;;32.25;18.13;;;0.20;99.90;;;;;;4919090;28;92160;-29
2022/03/04 02:23:48;;;;;;;17.48;14.70;;;0.20;99.90;;;;;;4918981;28;89783;-30
2022/03/04 02:26:14;;;;;;;20.92;16.92;;;0.20;99.90;;;;;;4919342;28;88842;-31
2022/03/04 02:28:40;;;;;;;30.23;18.85;;;0.10;99.90;;;;;;4919216;28;89136;-29
2022/03/04 02:31:05;;;;;;;25.92;16.50;;;0.00;99.90;;;;;;4919793;28;90567;-31
2022/03/04 02:33:31;;;;;;;28.70;18.75;;;0.10;99.90;;;;;;4918986;28;89656;-28
2022/03/04 02:35:56;;;;;;;28.63;16.65;;;0.20;99.90;;;;;;4919384;28;89544;-29
2022/03/04 02:38:22;;;;;;;22.55;17.02;;;0.20;99.90;;;;;;4918844;28;90217;-28
2022/03/04 02:40:48;;;;;;;34.63;22.80;;;0.10;99.90;;;;;;4918961;28;90115;-34
2022/03/04 02:43:13;;;;;;;26.45;17.02;;;0.00;99.90;;;;;;4919624;28;89199;-33
2022/03/04 02:45:39;;;;;;;38.08;22.33;;;-0.10;99.90;;;;;;4919156;28;89932;-32
2022/03/04 02:48:05;;;;;;;29.00;18.73;;;-0.20;99.90;;;;;;4919002;28;90875;-30
2022/03/04 02:50:30;;;;;;;32.50;20.23;;;-0.20;99.90;;;;;;4919470;28;90517;-35
2022/03/04 02:52:56;;;;;;;27.38;17.77;;;-0.20;99.90;;;;;;4917700;28;91725;-33
2022/03/04 02:55:22;;;;;;;42.25;22.45;;;-0.10;99.90;;;;;;4919407;28;90116;-34
2022/03/04 02:57:48;;;;;;;30.10;20.70;;;-0.10;99.90;;;;;;4918833;28;89075;-34
2022/03/04 03:00:16;;;;;;;31.95;21.40;;;-0.20;99.90;;;;;;4918741;28;89895;-33
2022/03/04 03:02:43;;;;;;;24.80;18.23;;;-0.20;99.90;;;;;;4919697;28;90215;-31
2022/03/04 03:05:09;;;;;;;27.50;20.33;;;-0.20;99.90;;;;;;4920610;28;90552;-32
2022/03/04 03:07:36;;;;;;;26.67;17.63;;;-0.20;99.90;;;;;;4921376;28;89900;-31
2022/03/04 03:10:02;;;;;;;32.10;17.50;;;-0.10;99.90;;;;;;4922504;28;90413;-34
2022/03/04 03:12:28;;;;;;;39.10;22.85;;;-0.10;99.90;;;;;;4921454;28;89844;-35
2022/03/04 03:14:53;;;;;;;35.63;19.48;;;-0.10;99.90;;;;;;4921909;28;89349;-35
2022/03/04 03:17:20;;;;;;;30.30;20.85;;;-0.30;99.90;;;;;;4921466;28;90522;-33
2022/03/04 03:19:46;;;;;;;31.58;21.80;;;-0.20;99.90;;;;;;4922512;28;90868;-32
2022/03/04 03:22:14;;;;;;;33.90;18.17;;;-0.20;99.90;;;;;;4920401;28;89469;-35
2022/03/04 03:24:40;;;;;;;39.17;22.92;;;-0.20;99.90;;;;;;4922126;28;89678;-30
2022/03/04 03:27:05;;;;;;;36.53;23.52;;;-0.20;99.90;;;;;;4921361;28;88490;-35
2022/03/04 03:29:31;;;;;;;33.53;21.77;;;-0.30;99.90;;;;;;4921759;28;90173;-37
2022/03/04 03:31:56;;;;;;;31.33;21.25;;;-0.30;99.90;;;;;;4921920;28;88872;-31
2022/03/04 03:34:22;;;;;;;33.55;23.08;;;-0.30;99.90;;;;;;4904187;28;90024;-36
2022/03/04 03:36:48;;;;;;;39.10;25.98;;;-0.20;99.90;;;;;;4921745;28;89168;-32
2022/03/04 03:39:13;;;;;;;37.15;22.33;;;-0.30;99.90;;;;;;4921360;28;90168;-34
2022/03/04 03:41:39;;;;;;;28.92;22.20;;;-0.20;99.90;;;;;;4921647;28;89321;-31
2022/03/04 03:44:05;;;;;;;35.40;19.23;;;-0.30;99.90;;;;;;4921052;28;90589;-34
2022/03/04 03:46:30;;;;;;;34.25;20.75;;;-0.30;99.90;;;;;;4921434;28;87872;-33
2022/03/04 03:48:56;;;;;;;35.58;20.58;;;-0.30;99.90;;;;;;4921380;28;90316;-35
2022/03/04 03:51:22;;;;;;;34.15;20.20;;;-0.30;99.90;;;;;;4921301;28;90204;-34
2022/03/04 03:53:47;;;;;;;36.65;22.92;;;-0.30;99.90;;;;;;4922003;28;89640;-35
2022/03/04 03:56:13;;;;;;;39.00;25.10;;;-0.30;99.90;;;;;;4921355;28;89230;-33
2022/03/04 03:58:38;;;;;;;29.73;16.17;;;-0.30;99.90;;;;;;4920342;28;89598;-34
2022/03/04 04:01:04;;;;;;;40.85;25.73;;;-0.30;99.90;;;;;;4921049;28;89737;-35
2022/03/04 04:03:30;;;;;;;34.83;21.67;;;-0.30;99.90;;;;;;4921043;28;90632;-31
2022/03/04 04:05:56;;;;;;;47.22;26.73;;;-0.40;99.90;;;;;;4921354;28;90577;-32
2022/03/04 04:08:22;;;;;;;37.17;27.27;;;-0.40;99.90;;;;;;4903071;28;90080;-34
2022/03/04 04:10:47;;;;;;;38.08;25.50;;;-0.40;99.90;;;;;;4921631;28;88635;-33
2022/03/04 04:13:13;;;;;;;40.88;25.98;;;-0.40;99.90;;;;;;4920772;28;90022;-32
2022/03/04 04:15:38;;;;;;;29.75;19.17;;;-0.40;99.90;;;;;;4921001;28;89695;-36
2022/03/04 04:18:04;;;;;;;31.30;21.25;;;-0.30;99.90;;;;;;4921358;28;90072;-35
2022/03/04 04:20:30;;;;;;;34.72;24.63;;;-0.30;99.90;;;;;;4920789;28;89308;-35
2022/03/04 04:22:55;;;;;;;32.33;18.00;;;-0.30;99.90;;;;;;4920855;28;90371;-31
2022/03/04 04:25:21;;;;;;;40.17;25.90;;;-0.20;99.90;;;;;;4920981;28;88730;-31
2022/03/04 04:27:47;;;;;;;37.78;23.35;;;-0.30;99.90;;;;;;4921165;28;90394;-30
2022/03/04 04:30:13;;;;;;;37.40;26.48;;;-0.30;99.90;;;;;;4919887;28;92440;-30
2022/03/04 04:32:39;;;;;;;29.73;19.70;;;-0.40;99.90;;;;;;4920771;28;90672;-34
2022/03/04 04:35:05;;;;;;;36.50;22.80;;;-0.40;99.90;;;;;;4921422;28;89562;-31
2022/03/04 04:37:31;;;;;;;36.95;25.73;;;-0.30;99.90;;;;;;4919779;28;90429;-33
2022/03/04 04:39:57;;;;;;;39.38;22.25;;;-0.20;99.90;;;;;;4920880;28;90959;-31
2022/03/04 04:42:22;;;;;;;33.45;21.17;;;-0.20;99.90;;;;;;4920321;28;89956;-32
2022/03/04 04:44:48;;;;;;;37.97;22.67;;;-0.20;99.90;;;;;;4921059;28;88814;-34
2022/03/04 04:47:14;;;;;;;34.58;14.95;;;-0.30;99.90;;;;;;4920977;28;90391;-35
2022/03/04 04:49:39;;;;;;;34.58;23.33;;;-0.20;99.90;;;;;;4920309;28;89924;-32
2022/03/04 04:52:06;;;;;;;41.65;25.48;;;-0.30;99.90;;;;;;4920935;28;89714;-32
2022/03/04 04:54:33;;;;;;;35.72;24.60;;;-0.30;99.90;;;;;;4920002;28;90331;-33
2022/03/04 04:56:58;;;;;;;35.70;22.33;;;-0.30;99.90;;;;;;4920481;28;90925;-33
2022/03/04 04:59:24;;;;;;;27.65;17.23;;;-0.20;99.90;;;;;;4920026;28;89366;-35
2022/03/04 05:01:49;;;;;;;30.50;19.42;;;-0.20;99.90;;;;;;4920233;28;89745;-36
2022/03/04 05:04:15;;;;;;;34.22;22.17;;;-0.20;99.90;;;;;;4920483;28;88215;-33
2022/03/04 05:06:40;;;;;;;35.78;22.80;;;-0.30;99.90;;;;;;4919397;28;90457;-35
2022/03/04 05:09:06;;;;;;;41.10;26.10;;;-0.30;99.90;;;;;;4919967;28;90233;-33
2022/03/04 05:11:32;;;;;;;35.92;22.65;;;-0.30;99.90;;;;;;4920881;28;89281;-33
2022/03/04 05:13:58;;;;;;;40.17;23.77;;;-0.30;99.90;;;;;;4919503;28;88020;-34
2022/03/04 05:16:23;;;;;;;26.45;18.58;;;-0.30;99.90;;;;;;4920549;28;90499;-34
2022/03/04 05:18:49;;;;;;;34.15;21.30;;;-0.20;99.90;;;;;;4919482;28;90940;-35
2022/03/04 05:21:14;;;;;;;33.60;21.40;;;-0.20;99.90;;;;;;4920263;28;90574;-34
2022/03/04 05:26:36;;;;;;;36.55;21.92;;;-0.30;99.90;;;;;;4919190;28;91033;-34
2022/03/04 05:29:04;;;;;;;28.98;18.98;;;-0.20;99.90;;;;;;4920651;28;89892;-33
2022/03/04 05:31:30;;;;;;;;;;;-0.10;99.90;;;;;;4920599;28;89507;-33
2022/03/04 05:33:56;;;;;;;27.30;16.70;;;-0.20;99.90;;;;;;4921780;28;87747;-30
2022/03/04 05:36:22;;;;;;;32.75;17.25;;;-0.20;99.90;;;;;;4919904;28;90357;-34
2022/03/04 05:38:48;;;;;;;37.33;18.95;;;-0.30;99.90;;;;;;4918041;28;90204;-32
2022/03/04 05:41:15;;;;;;;34.42;24.08;;;-0.30;99.90;;;;;;4919820;28;89684;-34
2022/03/04 05:43:41;;;;;;;37.83;22.30;;;-0.30;99.90;;;;;;4919749;28;88116;-32
2022/03/04 05:46:07;;;;;;;30.30;19.23;;;-0.40;99.90;;;;;;4920076;28;90284;-33
2022/03/04 05:48:33;;;;;;;34.20;23.23;;;-0.30;99.90;;;;;;4918916;28;90148;-35
2022/03/04 05:50:59;;;;;;;36.95;23.48;;;-0.30;99.90;;;;;;4920096;28;89920;-35
2022/03/04 05:53:24;;;;;;;33.33;25.65;;;-0.40;99.90;;;;;;4919111;28;89714;-34
2022/03/04 05:55:50;;;;;;;41.47;24.02;;;-0.50;99.90;;;;;;4920183;28;90357;-34
2022/03/04 05:58:15;;;;;;;42.40;21.02;;;-0.50;99.90;;;;;;4919041;28;90238;-34
2022/03/04 06:00:41;;;;;;;34.47;21.80;;;-0.40;99.90;;;;;;4919771;28;88477;-37
2022/03/04 06:03:07;;;;;;;33.67;22.60;;;-0.40;99.90;;;;;;4919570;28;89624;-32
2022/03/04 06:05:33;;;;;;;37.70;26.95;;;-0.40;99.90;;;;;;4918572;28;90362;-31
2022/03/04 06:07:59;;;;;;;36.08;26.00;;;-0.40;99.90;;;;;;4919063;28;91402;-31
2022/03/04 06:10:25;;;;;;;38.40;26.73;;;-0.50;99.90;;;;;;4918717;28;90331;-32
2022/03/04 06:12:50;;;;;;;37.63;23.73;;;-0.50;99.90;;;;;;4919170;28;89027;-32
2022/03/04 06:15:17;;;;;;;38.90;21.05;;;-0.50;99.90;;;;;;4917831;28;93527;-32
2022/03/04 06:17:47;;;;;;;38.92;22.17;;;-0.50;99.90;;;;;;4918897;28;89642;-33
2022/03/04 06:20:13;;;;;;;43.08;28.98;;;-0.50;99.90;;;;;;4918443;28;89733;-33
2022/03/04 06:22:39;;;;;;;39.53;21.88;;;-0.40;99.90;;;;;;4918041;28;89715;-34
2022/03/04 06:25:04;;;;;;;35.28;22.92;;;-0.40;99.90;;;;;;4919524;28;90114;-33
2022/03/04 06:27:30;;;;;;;45.13;30.75;;;-0.40;99.90;;;;;;4917926;28;90042;-36
2022/03/04 06:29:56;;;;;;;46.42;29.10;;;-0.40;99.90;;;;;;4919498;28;90784;-31
2022/03/04 06:32:22;;;;;;;34.20;23.65;;;-0.50;99.90;;;;;;4918020;28;89368;-34
2022/03/04 06:34:47;;;;;;;34.40;19.77;;;-0.40;99.90;;;;;;4918050;28;90618;-34
2022/03/04 06:37:13;;;;;;;39.97;23.13;;;-0.40;99.90;;;;;;4918264;28;89725;-37
2022/03/04 06:39:39;;;;;;;37.53;27.90;;;-0.40;99.90;;;;;;4921549;28;90592;-34
2022/03/04 06:42:05;;;;;;;43.75;27.33;;;-0.40;99.90;;;;;;4922505;28;90130;-31
2022/03/04 06:44:31;;;;;;;28.88;20.48;;;-0.40;99.90;;;;;;4921844;28;90929;-33
2022/03/04 06:46:56;;;;;;;38.85;22.65;;;-0.40;99.90;;;;;;4921984;28;89852;-32
2022/03/04 06:49:22;;;;;;;36.40;26.58;;;-0.40;99.90;;;;;;4921732;28;90040;-35
2022/03/04 06:51:47;;;;;;;41.85;25.02;;;-0.30;99.90;;;;;;4922463;28;87997;-30
2022/03/04 06:54:13;;;;;;;38.55;19.38;;;-0.30;99.90;;;;;;4921455;28;90155;-31
2022/03/04 06:56:39;;;;;;;35.10;23.25;;;-0.20;99.90;;;;;;4921192;28;91054;-34
2022/03/04 06:59:04;;;;;;;28.58;21.77;;;-0.20;99.90;;;;;;4920887;28;90572;-32
2022/03/04 07:01:31;;;;;;;36.03;26.88;;;-0.30;99.90;;;;;;4921862;28;89271;-36
2022/03/04 07:03:56;;;;;;;41.78;23.40;;;-0.40;99.90;;;;;;4922148;28;89895;-32
2022/03/04 07:06:22;;;;;;;37.38;21.27;;;-0.40;99.90;;;;;;4919092;28;93226;-33
2022/03/04 07:08:47;;;;;;;34.92;22.50;;;-0.30;99.90;;;;;;4921988;28;89733;-31
2022/03/04 07:11:13;;;;;;;35.88;21.35;;;-0.30;99.90;;;;;;4921911;28;88752;-32
2022/03/04 07:13:38;;;;;;;42.55;29.33;;;-0.30;99.90;;;;;;4921428;28;90326;-33
2022/03/04 07:16:05;;;;;;;50.78;31.95;;;-0.20;99.90;;;;;;4920113;28;90655;-35
2022/03/04 07:18:31;;;;;;;51.13;28.58;;;-0.30;99.90;;;;;;4921331;28;88650;-33
2022/03/04 07:20:58;;;;;;;36.28;22.70;;;-0.40;99.90;;;;;;4921056;28;90159;-35
2022/03/04 07:23:24;;;;;;;46.40;23.50;;;-0.30;99.90;;;;;;4922817;28;90715;-30
2022/03/04 07:25:49;;;;;;;34.90;25.77;;;-0.20;99.90;;;;;;4921457;28;89660;-37
2022/03/04 07:28:16;;;;;;;47.20;27.40;;;-0.20;99.90;;;;;;4921535;28;89530;-33
2022/03/04 07:30:41;;;;;;;44.97;27.05;;;-0.20;99.90;;;;;;4914311;28;89246;-32
2022/03/04 07:33:07;;;;;;;40.80;26.85;;;-0.20;99.90;;;;;;4909832;28;90156;-36
2022/03/04 07:35:34;;;;;;;42.92;27.42;;;-0.30;99.90;;;;;;4912250;28;90149;-34
2022/03/04 07:38:00;;;;;;;41.40;26.67;;;-0.20;99.90;;;;;;4911664;28;90269;-33
2022/03/04 07:40:26;;;;;;;39.90;23.95;;;-0.20;99.90;;;;;;4913275;28;89019;-33
2022/03/04 07:42:51;;;;;;;41.00;26.70;;;-0.20;99.90;;;;;;4905476;28;89858;-31
2022/03/04 07:45:17;;;;;;;36.50;27.73;;;-0.20;99.90;;;;;;4901366;28;89989;-31
2022/03/04 07:47:43;;;;;;;40.35;25.13;;;-0.20;99.90;;;;;;4917619;28;90354;-33
2022/03/04 07:50:14;;;;;;;45.30;23.38;;;-0.10;99.90;;;;;;4900668;28;88680;-30
2022/03/04 07:52:40;;;;;;;40.47;26.08;;;-0.10;99.90;;;;;;4900817;28;90497;-34
2022/03/04 07:55:09;;;;;;;46.80;27.23;;;0.00;99.90;;;;;;4900425;28;89068;-34
2022/03/04 07:57:35;;;;;;;34.92;23.83;;;0.00;99.90;;;;;;4901257;28;90584;-35
2022/03/04 08:00:02;;;;;;;36.92;28.00;;;0.00;99.90;;;;;;4899282;28;89277;-32
2022/03/04 08:02:30;;;;;;;37.65;23.70;;;0.00;99.90;;;;;;4900147;28;89830;-35
2022/03/04 08:04:55;;;;;;;38.95;25.92;;;0.00;99.90;;;;;;4897492;28;90107;-32
2022/03/04 08:07:21;;;;;;;27.98;23.92;;;0.10;99.90;;;;;;4850920;28;88850;-34
2022/03/04 08:09:46;;;;;;;35.03;25.02;;;0.10;99.90;;;;;;4923555;28;89473;-33
2022/03/04 08:12:12;;;;;;;26.35;19.20;;;0.20;99.90;;;;;;4918651;28;90956;-32
2022/03/04 08:14:38;;;;;;;38.63;25.42;;;0.10;99.90;;;;;;4918723;28;88694;-32
2022/03/04 08:17:04;;;;;;;31.48;22.23;;;0.10;99.90;;;;;;4903056;28;89430;-39
2022/03/04 08:19:30;;;;;;;33.75;23.80;;;0.20;99.90;;;;;;4899585;28;88067;-33
2022/03/04 08:21:56;;;;;;;40.95;25.58;;;0.20;99.90;;;;;;4898869;28;90349;-34
2022/03/04 08:24:22;;;;;;;31.65;21.20;;;0.20;99.90;;;;;;4898814;28;89241;-33
2022/03/04 08:26:47;;;;;;;26.95;19.23;;;0.30;99.90;;;;;;4899146;28;89600;-33
2022/03/04 08:29:14;;;;;;;26.23;16.48;;;0.40;99.90;;;;;;4897194;28;89900;-35
2022/03/04 08:31:40;;;;;;;27.30;17.90;;;0.50;99.90;;;;;;4898531;28;90200;-32
2022/03/04 08:34:05;;;;;;;31.95;23.05;;;0.50;99.90;;;;;;4906188;28;90916;-32
2022/03/04 08:36:32;;;;;;;36.90;24.75;;;0.40;99.90;;;;;;4907216;28;91001;-33
2022/03/04 08:39:02;;;;;;;38.42;23.95;;;0.40;99.90;;;;;;4917008;28;88544;-30
2022/03/04 08:41:29;;;;;;;39.97;25.75;;;0.40;99.90;;;;;;4770208;28;97602;-35
2022/03/04 08:43:54;;;;;;;40.22;23.20;;;0.40;99.90;;;;;;4919814;28;89454;-33
2022/03/04 08:46:21;;;;;;;36.15;23.73;;;0.40;99.90;;;;;;4906607;28;89570;-35
2022/03/04 08:48:47;;;;;;;34.05;18.98;;;0.40;99.90;;;;;;4910025;28;88726;-33
2022/03/04 08:51:12;;;;;;;37.63;25.75;;;0.60;99.90;;;;;;4916107;28;90152;-32
2022/03/04 08:53:38;;;;;;;32.47;24.58;;;0.60;99.90;;;;;;4915600;28;89866;-33
2022/03/04 08:56:05;;;;;;;37.50;25.33;;;0.70;99.90;;;;;;4915022;28;89891;-36
2022/03/04 08:58:30;;;;;;;34.88;23.98;;;0.70;99.90;;;;;;4915422;28;89445;-31
2022/03/04 09:00:56;;;;;;;30.98;21.83;;;0.80;99.90;;;;;;4915406;28;90218;-31
2022/03/04 09:03:22;;;;;;;36.83;22.90;;;0.80;99.90;;;;;;4914862;28;89865;-32
2022/03/04 09:05:48;;;;;;;35.00;21.17;;;0.90;99.90;;;;;;4916562;28;89945;-34
2022/03/04 09:08:14;;;;;;;36.00;25.90;;;1.00;99.90;;;;;;4915341;28;90100;-34
2022/03/04 09:10:40;;;;;;;38.80;23.55;;;1.10;99.90;;;;;;4915157;28;90144;-34
2022/03/04 09:13:06;;;;;;;35.38;26.75;;;1.00;99.90;;;;;;4916019;28;89418;-32
2022/03/04 09:15:32;;;;;;;44.10;27.65;;;1.00;99.90;;;;;;4915076;28;89929;-32
2022/03/04 09:17:58;;;;;;;40.97;27.60;;;1.00;99.90;;;;;;4915863;28;88185;-34
2022/03/04 09:20:24;;;;;;;45.78;25.80;;;1.00;99.90;;;;;;4918332;28;90170;-33
2022/03/04 09:22:51;;;;;;;37.22;27.27;;;1.10;99.90;;;;;;4917850;28;90869;-33
2022/03/04 09:25:16;;;;;;;33.03;23.45;;;1.20;99.90;;;;;;4918708;28;90731;-33
2022/03/04 09:27:46;;;;;;;28.38;21.10;;;1.30;99.90;;;;;;4918260;28;88485;-34
2022/03/04 09:30:12;;;;;;;42.45;29.35;;;1.50;99.90;;;;;;4918018;28;90367;-33
2022/03/04 09:32:39;;;;;;;35.67;25.35;;;1.70;99.90;;;;;;4918318;28;89571;-34
2022/03/04 09:35:05;;;;;;;36.47;22.95;;;2.00;99.90;;;;;;4917695;28;89634;-36
2022/03/04 09:37:32;;;;;;;34.55;23.90;;;2.20;99.90;;;;;;4917003;28;88605;-31
2022/03/04 09:39:58;;;;;;;40.17;28.02;;;2.40;99.90;;;;;;4918014;28;90261;-31
2022/03/04 09:42:24;;;;;;;38.17;24.92;;;2.50;99.90;;;;;;4917842;28;89528;-33
2022/03/04 09:44:50;;;;;;;34.88;22.60;;;2.70;99.90;;;;;;4917815;28;90216;-31
2022/03/04 09:47:23;;;;;;;36.58;25.02;;;2.90;99.90;;;;;;4917652;28;89069;-38
2022/03/04 09:49:53;;;;;;;34.35;24.17;;;3.00;99.90;;;;;;4917624;28;90095;-33
2022/03/04 09:52:19;;;;;;;32.63;23.27;;;3.10;99.90;;;;;;4917269;28;89857;-34
2022/03/04 09:54:49;;;;;;;28.52;22.30;;;3.20;99.90;;;;;;4917809;28;89674;-32
2022/03/04 09:57:15;;;;;;;36.40;24.08;;;3.30;99.90;;;;;;4918525;28;89584;-37
2022/03/04 09:59:41;;;;;;;30.27;23.00;;;3.40;99.90;;;;;;4918012;28;90166;-35
2022/03/04 10:02:07;;;;;;;43.13;26.92;;;3.50;99.90;;;;;;4917171;28;89241;-32
2022/03/04 10:04:33;;;;;;;38.97;26.15;;;3.70;99.90;;;;;;4918177;28;90415;-32
2022/03/04 10:07:13;;;;;;;36.05;23.67;;;3.70;99.90;;;;;;4917299;28;87992;-33
2022/03/04 10:09:43;;;;;;;31.00;21.92;;;3.70;99.90;;;;;;4917644;28;90269;-32
2022/03/04 10:12:11;;;;;;;35.60;26.83;;;3.80;99.90;;;;;;4917276;28;90708;-32
2022/03/04 10:14:56;;;;;;;34.75;24.05;;;3.90;99.90;;;;;;4920370;28;91821;-33
2022/03/04 10:17:21;;;;;;;31.83;21.63;;;4.00;99.90;;;;;;4920813;28;89460;-32
2022/03/04 10:20:00;;;;;;;28.25;19.70;;;4.20;99.90;;;;;;4913880;28;90161;-34
2022/03/04 10:22:42;;;;;;;44.58;34.13;;;4.30;99.90;;;;;;4901794;28;91139;-32
2022/03/04 10:25:22;;;;;;;32.17;25.50;;;4.40;99.90;;;;;;4902405;28;89691;-35
2022/03/04 10:27:48;;;;;;;39.85;26.73;;;4.50;99.90;;;;;;4901955;28;89285;-32
2022/03/04 10:30:15;;;;;;;37.20;27.67;;;4.60;99.90;;;;;;4901729;28;90455;-32
2022/03/04 10:32:41;;;;;;;39.85;26.85;;;4.60;99.90;;;;;;4901062;28;89830;-31
2022/03/04 10:35:14;;;;;;;33.33;25.02;;;4.60;99.90;;;;;;4901793;28;90299;-36
2022/03/04 10:37:44;;;;;;;34.50;20.92;;;4.60;99.90;;;;;;4900739;28;89725;-33
2022/03/04 10:40:18;;;;;;;37.15;25.42;;;4.70;99.90;;;;;;4901811;28;89779;-34
2022/03/04 10:42:52;;;;;;;41.90;29.15;;;4.80;99.90;;;;;;4901343;28;89786;-36
2022/03/04 10:45:18;;;;;;;40.53;28.92;;;4.80;99.90;;;;;;4901121;28;89658;-34
2022/03/04 10:47:46;;;;;;;32.03;24.00;;;4.90;99.90;;;;;;4901349;28;89146;-30
2022/03/04 10:50:12;;;;;;;;;;;5.00;99.90;;;;;;4902658;28;89611;-31
2022/03/04 10:52:52;;;;;;;37.78;24.35;;;5.00;99.90;;;;;;4902392;28;89973;-32
2022/03/04 10:55:29;;;;;;;41.15;26.98;;;5.00;99.90;;;;;;4901166;28;90219;-32
2022/03/04 10:58:00;;;;;;;35.47;24.63;;;5.00;99.90;;;;;;4901352;28;89182;-30
2022/03/04 11:00:30;;;;;;;33.65;24.55;;;5.10;99.90;;;;;;4900514;28;90500;-28
2022/03/04 11:02:56;;;;;;;30.80;22.35;;;5.10;99.90;;;;;;4900417;28;91633;-33
2022/03/04 11:05:22;;;;;;;34.65;22.23;;;5.30;99.90;;;;;;4900262;28;91081;-29
2022/03/04 11:07:49;;;;;;;33.78;26.67;;;5.30;99.90;;;;;;4901371;28;89732;-30
2022/03/04 11:10:16;;;;;;;39.33;25.25;;;5.30;99.90;;;;;;4900436;28;90196;-34
2022/03/04 11:12:42;;;;;;;35.78;25.50;;;5.30;99.90;;;;;;4900974;28;90090;-32
2022/03/04 11:15:12;;;;;;;31.60;24.27;;;5.40;99.90;;;;;;4901167;28;90693;-31
2022/03/04 11:17:38;;;;;;;35.95;25.27;;;5.60;99.90;;;;;;4900786;28;88375;-32
2022/03/04 11:20:07;;;;;;;30.52;20.48;;;5.70;99.90;;;;;;4900872;28;90040;-31
2022/03/04 11:22:33;;;;;;;34.50;24.23;;;5.80;99.90;;;;;;4900121;28;89935;-31
2022/03/04 11:25:05;;;;;;;35.90;27.02;;;5.90;99.90;;;;;;4901169;28;88846;-33
2022/03/04 11:27:35;;;;;;;37.10;26.70;;;5.90;99.90;;;;;;4900273;28;90183;-31
2022/03/04 11:30:00;;;;;;;33.90;24.00;;;5.90;99.90;;;;;;4900716;28;90175;-31
2022/03/04 11:32:29;;;;;;;38.67;26.58;;;6.00;99.90;;;;;;4899497;28;89166;-31
2022/03/04 11:34:55;;;;;;;33.65;25.88;;;6.00;99.90;;;;;;4900999;28;89438;-32
2022/03/04 11:37:22;;;;;;;28.65;22.60;;;6.10;99.90;;;;;;4900646;28;88406;-32
2022/03/04 11:39:59;;;;;;;34.65;22.77;;;6.30;99.90;;;;;;4900414;28;91346;-33
2022/03/04 11:42:36;;;;;;;29.30;23.92;;;6.50;99.90;;;;;;4900988;28;88608;-30
2022/03/04 11:45:02;;;;;;;24.70;19.13;;;6.50;99.90;;;;;;4900519;28;89467;-29
2022/03/04 11:47:38;;;;;;;27.80;16.55;;;6.60;99.90;;;;;;4900196;28;89608;-31
2022/03/04 11:50:26;;;;;;;23.02;18.00;;;6.80;99.90;;;;;;4900480;28;90352;-33
2022/03/04 11:52:52;;;;;;;29.65;18.98;;;6.90;99.90;;;;;;4898431;28;91114;-34
2022/03/04 11:55:22;;;;;;;31.10;22.67;;;6.90;99.90;;;;;;4899536;28;90555;-31
2022/03/04 11:57:56;;;;;;;27.02;18.90;;;7.10;99.90;;;;;;4900368;28;89349;-33
2022/03/04 12:00:24;;;;;;;22.67;15.68;;;7.20;99.90;;;;;;4900347;28;91060;-30
2022/03/04 12:02:58;;;;;;;21.02;15.63;;;7.30;99.90;;;;;;4900315;28;89549;-30
2022/03/04 12:05:25;;;;;;;16.33;13.88;;;7.40;99.90;;;;;;4899343;28;89844;-31
2022/03/04 12:07:51;;;;;;;20.27;15.35;;;7.40;99.90;;;;;;4932833;23;89292;-31
2022/03/04 12:10:19;;;;;;;19.33;15.20;;;7.40;99.90;;;;;;4900142;28;90026;-30
2022/03/04 12:13:06;;;;;;;18.15;13.75;;;7.50;99.90;;;;;;4900687;28;89674;-32
2022/03/04 12:15:40;;;;;;;20.08;12.77;;;7.70;99.90;;;;;;4899867;28;89976;-30
2022/03/04 12:18:08;;;;;;;19.48;13.65;;;7.80;99.90;;;;;;4900542;28;89461;-29
2022/03/04 12:20:40;;;;;;;18.80;13.93;;;7.80;99.90;;;;;;4900550;28;89237;-31
2022/03/04 12:23:15;;;;;;;16.42;13.05;;;8.00;99.90;;;;;;4900083;28;90470;-33
2022/03/04 12:26:05;;;;;;;19.05;13.13;;;8.10;91.00;;;;;;4899784;28;90734;-29
2022/03/04 12:28:39;;;;;;;19.98;15.15;;;8.00;99.10;;;;;;4892897;28;89793;-30
2022/03/04 12:31:05;;;;;;;17.63;10.60;;;7.90;99.90;;;;;;4900218;28;90737;-34
2022/03/04 12:33:36;;;;;;;15.20;11.23;;;8.00;94.40;;;;;;4901414;28;88998;-31
2022/03/04 12:36:04;;;;;;;18.20;10.93;;;8.10;99.90;;;;;;4901616;28;89696;-33